Time;durP1;ratioP1;P1;durP2;ratioP2;P2;SDS_P1;SDS_P2;PMS_P1;PMS_P2;Temp;Humidity;BMP_temperature;BMP_pressure;BME280_temperature;BME280_humidity;BME280_pressure;Samples;Min_cycle;Max_cycle;Signal;HPM_P1;HPM_P2
2023/02/26 00:06:52;;;;;;;1.55;0.95;;;2.00;1.00;;;;;;26032454;22;20015;-42
2023/02/26 00:17:15;;;;;;;5.35;0.85;;;2.20;1.00;;;;;;26026502;22;20073;-42
2023/02/26 00:27:16;;;;;;;1.27;0.50;;;2.40;1.00;;;;;;26023751;22;20022;-41
2023/02/26 00:37:23;;;;;;;2.03;0.90;;;2.60;1.00;;;;;;26027689;22;20015;-42
2023/02/26 00:47:36;;;;;;;2.38;0.50;;;2.90;1.00;;;;;;26028723;22;20026;-42
2023/02/26 00:57:37;;;;;;;0.65;0.20;;;3.50;1.00;;;;;;26027899;22;20013;-42
2023/02/26 01:08:01;;;;;;;0.22;0.13;;;3.60;1.00;;;;;;26020555;22;20449;-42
2023/02/26 01:18:17;;;;;;;2.35;0.50;;;3.50;1.00;;;;;;26001382;22;20031;-42
2023/02/26 01:28:18;;;;;;;1.83;0.45;;;3.20;1.00;;;;;;26023581;22;21515;-42
2023/02/26 01:38:30;;;;;;;0.95;0.40;;;3.10;1.00;;;;;;26023147;22;20015;-41
2023/02/26 01:48:48;;;;;;;1.38;0.75;;;3.00;1.00;;;;;;26023912;22;20027;-42
2023/02/26 01:58:49;;;;;;;1.95;0.73;;;2.90;1.00;;;;;;26024542;22;20533;-42
2023/02/26 02:08:51;;;;;;;0.70;0.13;;;2.90;1.00;;;;;;26021397;22;20011;-42
2023/02/26 02:18:57;;;;;;;3.90;0.93;;;2.80;1.00;;;;;;26027131;22;20335;-42
2023/02/26 02:29:20;;;;;;;1.60;0.82;;;2.70;1.00;;;;;;26033428;22;20003;-42
2023/02/26 02:39:29;;;;;;;1.27;0.40;;;2.70;1.00;;;;;;26031791;22;20023;-42
2023/02/26 02:49:47;;;;;;;0.55;0.30;;;2.70;1.00;;;;;;26031627;22;20352;-42
2023/02/26 02:59:53;;;;;;;1.13;0.50;;;2.70;1.00;;;;;;26027667;22;20429;-42
2023/02/26 03:09:54;;;;;;;1.03;0.20;;;2.70;1.00;;;;;;26026893;22;20011;-41
2023/02/26 03:20:03;;;;;;;0.68;0.00;;;2.80;1.00;;;;;;26015329;22;20019;-41
2023/02/26 03:41:36;;;;;;;0.28;0.13;;;2.40;1.00;;;;;;26019569;22;20020;-79
2023/02/26 03:52:22;;;;;;;1.20;0.30;;;2.40;1.00;;;;;;25905743;22;20044;-79
2023/02/26 04:02:41;;;;;;;0.82;0.32;;;2.40;1.00;;;;;;25938911;22;20008;-79
2023/02/26 04:12:51;;;;;;;9.05;1.15;;;2.30;1.00;;;;;;25903390;22;20011;-79
2023/02/26 04:23:24;;;;;;;0.97;0.30;;;2.00;1.00;;;;;;25876723;22;20008;-78
2023/02/26 04:34:07;;;;;;;5.40;0.88;;;1.90;1.00;;;;;;25903960;22;20031;-79
2023/02/26 04:44:59;;;;;;;0.32;0.22;;;1.80;1.00;;;;;;25915753;22;20008;-79
2023/02/26 04:55:48;;;;;;;0.35;0.03;;;1.70;1.00;;;;;;25971094;22;19992;-79
2023/02/26 05:06:29;;;;;;;1.67;0.57;;;1.50;1.00;;;;;;25867349;22;20043;-79
2023/02/26 05:16:53;;;;;;;1.67;0.70;;;1.30;1.00;;;;;;25831057;22;20004;-79
2023/02/26 05:48:37;;;;;;;2.85;0.90;;;0.80;1.00;;;;;;25883095;22;20023;-79
2023/02/26 05:59:05;;;;;;;0.25;0.10;;;0.70;1.00;;;;;;25881789;22;20008;-78
2023/02/26 06:09:39;;;;;;;2.00;0.80;;;0.70;1.00;;;;;;25912702;22;20708;-78
2023/02/26 06:20:55;;;;;;;2.83;0.60;;;0.70;1.00;;;;;;25803428;22;20016;-79
2023/02/26 06:42:05;;;;;;;0.20;0.10;;;0.40;1.00;;;;;;25955426;22;20022;-78
2023/02/26 06:52:31;;;;;;;1.23;0.32;;;0.20;1.00;;;;;;25963999;22;20049;-79
2023/02/26 07:02:51;;;;;;;0.70;0.30;;;0.30;1.00;;;;;;25958078;22;20011;-79
2023/02/26 07:13:04;;;;;;;0.50;0.20;;;0.50;1.00;;;;;;26045819;22;20015;-78
2023/02/26 07:23:28;;;;;;;0.93;0.30;;;0.80;1.00;;;;;;26021028;22;20468;-78
2023/02/26 07:33:33;;;;;;;7.63;0.95;;;0.90;1.00;;;;;;25995490;22;20055;-78
2023/02/26 07:43:36;;;;;;;1.37;0.30;;;1.20;1.00;;;;;;25990475;22;20011;-78
2023/02/26 07:53:48;;;;;;;4.18;0.60;;;1.40;1.00;;;;;;25927016;22;20070;-79
2023/02/26 08:04:21;;;;;;;0.82;0.22;;;1.60;1.00;;;;;;25998154;22;20011;-79
2023/02/26 08:14:44;;;;;;;7.10;0.68;;;2.10;1.00;;;;;;25885646;22;20087;-41
2023/02/26 08:24:45;;;;;;;0.25;0.15;;;2.40;1.00;;;;;;26025271;22;20021;-41
2023/02/26 08:34:46;;;;;;;0.57;0.30;;;2.90;1.00;;;;;;26014485;22;20019;-41
2023/02/26 08:44:47;;;;;;;1.05;0.47;;;3.20;1.00;;;;;;26012759;22;20029;-41
2023/02/26 08:54:48;;;;;;;0.30;0.10;;;3.60;1.00;;;;;;26018544;22;20022;-41
2023/02/26 09:04:49;;;;;;;2.13;0.40;;;3.70;1.00;;;;;;26020577;22;20470;-41
2023/02/26 09:14:51;;;;;;;1.48;0.40;;;4.00;1.00;;;;;;26019885;22;20337;-41
2023/02/26 09:24:52;;;;;;;2.35;0.52;;;4.20;1.00;;;;;;25909546;22;20026;-42
2023/02/26 09:34:53;;;;;;;0.60;0.38;;;4.40;1.00;;;;;;25975758;22;20019;-41
2023/02/26 09:44:58;;;;;;;1.20;0.57;;;4.70;1.00;;;;;;26011989;22;20508;-41
2023/02/26 09:55:15;;;;;;;0.32;0.00;;;4.90;1.00;;;;;;26017284;22;21545;-42
2023/02/26 10:05:35;;;;;;;2.67;0.40;;;5.00;1.00;;;;;;25988669;22;20022;-41
2023/02/26 10:15:41;;;;;;;1.25;0.10;;;5.00;1.00;;;;;;26002224;22;20562;-42
2023/02/26 10:26:10;;;;;;;0.52;0.20;;;5.30;1.00;;;;;;25991576;22;21579;-42
2023/02/26 10:36:47;;;;;;;0.17;0.10;;;5.50;1.00;;;;;;25973809;22;20038;-42
2023/02/26 10:47:11;;;;;;;2.67;1.10;;;6.00;1.00;;;;;;26013144;22;20014;-41
2023/02/26 10:57:25;;;;;;;0.00;0.00;;;6.30;1.00;;;;;;26030355;22;21328;-42
2023/02/26 11:07:30;;;;;;;0.32;0.10;;;6.50;1.00;;;;;;26047723;22;20062;-42
2023/02/26 11:17:32;;;;;;;0.30;0.10;;;6.90;1.00;;;;;;26041781;22;20310;-42
2023/02/26 11:27:37;;;;;;;0.82;0.13;;;6.90;1.00;;;;;;26047284;22;20018;-42
2023/02/26 11:37:40;;;;;;;0.77;0.20;;;7.70;1.00;;;;;;26043187;22;20007;-42
2023/02/26 11:47:41;;;;;;;1.13;0.13;;;8.00;1.00;;;;;;26004292;22;20487;-41
2023/02/26 11:57:43;;;;;;;0.73;0.55;;;8.20;1.00;;;;;;26033082;22;20452;-41
2023/02/26 12:07:45;;;;;;;1.85;0.10;;;7.50;1.00;;;;;;26024962;22;20019;-41
2023/02/26 12:17:55;;;;;;;0.13;0.00;;;7.70;1.00;;;;;;26036440;22;20031;-41
2023/02/26 12:28:11;;;;;;;0.20;0.00;;;8.50;1.00;;;;;;26024936;22;20015;-42
2023/02/26 12:38:50;;;;;;;0.30;0.10;;;9.20;1.00;;;;;;25982059;22;20360;-41
2023/02/26 12:49:09;;;;;;;0.57;0.10;;;9.50;1.00;;;;;;25611463;22;21285;-41
2023/02/26 12:59:41;;;;;;;0.10;0.10;;;10.00;1.00;;;;;;26032085;22;20426;-42
2023/02/26 13:10:00;;;;;;;1.35;0.45;;;10.30;1.00;;;;;;26027449;22;20022;-42
2023/02/26 13:20:17;;;;;;;0.20;0.10;;;10.30;1.00;;;;;;26034691;22;20043;-42
2023/02/26 13:30:28;;;;;;;0.13;0.08;;;10.60;1.00;;;;;;26030602;22;20353;-41
2023/02/26 13:40:42;;;;;;;1.00;0.30;;;11.00;1.00;;;;;;26036690;22;20007;-41
2023/02/26 13:51:03;;;;;;;0.17;0.10;;;10.40;1.00;;;;;;26017999;22;21303;-42
2023/02/26 14:01:17;;;;;;;0.80;0.40;;;9.60;1.00;;;;;;26015197;22;20522;-42
2023/02/26 14:11:44;;;;;;;0.10;0.10;;;11.00;1.00;;;;;;26027932;22;20090;-41
2023/02/26 14:22:08;;;;;;;0.45;0.22;;;11.00;1.00;;;;;;26036159;22;20994;-41
2023/02/26 14:32:09;;;;;;;0.52;0.10;;;11.60;1.00;;;;;;26044847;22;20014;-41
2023/02/26 14:42:33;;;;;;;0.82;0.10;;;11.20;1.00;;;;;;26010564;22;20019;-41
2023/02/26 14:52:56;;;;;;;1.33;0.50;;;9.90;1.00;;;;;;26035136;22;20017;-41
2023/02/26 15:03:04;;;;;;;0.85;0.43;;;9.30;1.00;;;;;;26039096;22;20354;-41
2023/02/26 15:13:26;;;;;;;0.68;0.10;;;9.50;1.00;;;;;;26039110;22;20085;-41
2023/02/26 15:23:52;;;;;;;0.60;0.20;;;8.60;1.00;;;;;;26044522;22;20042;-41
2023/02/26 15:33:56;;;;;;;0.32;0.32;;;8.60;1.00;;;;;;26036892;22;20011;-41
2023/02/26 15:44:25;;;;;;;1.20;0.60;;;8.40;1.00;;;;;;26045902;22;20027;-41
2023/02/26 15:54:36;;;;;;;0.30;0.10;;;8.00;1.00;;;;;;26042041;22;21162;-41
2023/02/26 16:04:37;;;;;;;2.30;0.88;;;7.60;1.00;;;;;;26041943;22;20015;-41
2023/02/26 16:14:42;;;;;;;1.70;0.80;;;7.40;1.00;;;;;;26036618;22;20102;-41
2023/02/26 16:24:47;;;;;;;0.47;0.30;;;7.20;1.00;;;;;;26029411;22;21458;-41
2023/02/26 16:34:54;;;;;;;0.47;0.20;;;7.00;1.00;;;;;;26034283;22;20017;-40
2023/02/26 16:45:16;;;;;;;1.07;0.77;;;6.80;1.00;;;;;;26036075;22;20015;-41
2023/02/26 16:55:17;;;;;;;2.20;0.38;;;6.50;1.00;;;;;;26038977;22;20515;-41
2023/02/26 17:05:23;;;;;;;1.55;0.40;;;6.20;1.00;;;;;;26027615;22;20429;-41
2023/02/26 17:15:33;;;;;;;2.15;0.22;;;6.10;1.00;;;;;;26028426;22;20143;-41
2023/02/26 17:25:40;;;;;;;1.05;0.57;;;5.90;1.00;;;;;;26031566;22;20007;-41
2023/02/26 17:35:43;;;;;;;1.75;0.50;;;5.80;1.00;;;;;;26033450;22;20388;-42
2023/02/26 17:45:44;;;;;;;1.58;0.50;;;5.70;1.00;;;;;;26027511;22;20016;-41
2023/02/26 17:55:46;;;;;;;1.00;0.30;;;5.60;1.00;;;;;;26020108;22;20526;-41
2023/02/26 18:05:48;;;;;;;2.65;0.80;;;5.40;1.00;;;;;;26021186;22;20298;-41
2023/02/26 18:15:51;;;;;;;1.50;0.68;;;5.30;1.00;;;;;;26022974;22;20525;-41
2023/02/26 18:25:53;;;;;;;2.65;0.50;;;5.20;1.00;;;;;;26021888;22;20285;-41
2023/02/26 18:35:56;;;;;;;1.25;0.40;;;5.10;1.00;;;;;;26015837;22;20377;-41
2023/02/26 18:46:00;;;;;;;1.45;0.80;;;4.90;1.00;;;;;;26015093;22;20019;-42
2023/02/26 18:56:01;;;;;;;1.55;0.63;;;4.80;1.00;;;;;;26004496;22;20581;-41
2023/02/26 19:06:07;;;;;;;1.98;1.05;;;4.60;1.00;;;;;;26027323;22;20007;-41
2023/02/26 19:16:08;;;;;;;1.90;0.93;;;4.50;1.00;;;;;;26028137;22;20023;-42
2023/02/26 19:26:09;;;;;;;1.50;0.40;;;4.40;1.00;;;;;;26035865;22;20019;-41
2023/02/26 19:36:10;;;;;;;0.85;0.38;;;4.40;1.00;;;;;;26022664;22;20352;-41
2023/02/26 19:46:12;;;;;;;0.98;0.30;;;4.40;1.00;;;;;;26028825;22;20015;-41
2023/02/26 19:56:13;;;;;;;2.17;1.40;;;4.40;1.00;;;;;;26022228;22;20018;-42
2023/02/26 20:06:15;;;;;;;1.00;0.35;;;4.50;1.00;;;;;;25997099;22;20081;-41
2023/02/26 20:16:16;;;;;;;1.67;0.98;;;4.60;1.00;;;;;;26027989;22;20460;-41
2023/02/26 20:26:17;;;;;;;4.38;0.73;;;4.50;1.00;;;;;;26028004;22;20342;-41
2023/02/26 20:36:18;;;;;;;1.90;0.50;;;4.40;1.00;;;;;;26021091;22;20021;-41
2023/02/26 20:46:19;;;;;;;3.03;1.23;;;4.40;1.00;;;;;;26018314;22;20438;-42
2023/02/26 20:56:21;;;;;;;1.58;0.70;;;4.30;1.00;;;;;;26022498;22;20022;-41
2023/02/26 21:06:22;;;;;;;1.20;0.73;;;4.20;1.00;;;;;;26010472;22;20476;-41
2023/02/26 21:16:24;;;;;;;3.55;1.27;;;4.10;1.00;;;;;;26034727;22;20030;-42
2023/02/26 21:26:26;;;;;;;1.98;0.90;;;4.10;1.00;;;;;;26034484;22;20013;-41
2023/02/26 21:36:28;;;;;;;7.43;1.63;;;4.10;1.00;;;;;;26030608;22;20022;-41
2023/02/26 21:46:29;;;;;;;2.08;1.05;;;4.10;1.00;;;;;;26035982;22;20379;-42
2023/02/26 21:56:30;;;;;;;3.40;1.65;;;4.10;1.00;;;;;;26034187;22;20011;-41
2023/02/26 22:06:31;;;;;;;2.72;1.20;;;4.00;1.00;;;;;;26018662;22;20015;-41
2023/02/26 22:16:32;;;;;;;3.25;0.82;;;3.90;1.00;;;;;;26031429;22;20025;-42
2023/02/26 22:26:34;;;;;;;2.08;0.80;;;3.80;1.00;;;;;;26026076;22;20023;-41
2023/02/26 22:36:35;;;;;;;2.40;1.25;;;3.80;1.00;;;;;;26010241;22;20015;-42
2023/02/26 22:46:37;;;;;;;1.50;0.85;;;3.70;1.00;;;;;;26040063;22;20015;-41
2023/02/26 22:56:38;;;;;;;1.45;0.75;;;3.70;1.00;;;;;;26037765;22;20011;-42
2023/02/26 23:06:39;;;;;;;3.47;0.88;;;3.60;1.00;;;;;;26036897;22;20021;-42
2023/02/26 23:16:40;;;;;;;2.90;0.68;;;3.60;1.00;;;;;;26037038;22;21755;-42
2023/02/26 23:26:42;;;;;;;0.70;0.30;;;3.60;1.00;;;;;;26031225;22;20029;-41
2023/02/26 23:36:43;;;;;;;1.77;0.30;;;3.70;1.00;;;;;;26028130;22;20026;-41
2023/02/26 23:46:44;;;;;;;0.47;0.20;;;3.70;1.00;;;;;;26034523;22;20011;-41
2023/02/26 23:56:45;;;;;;;7.53;1.40;;;3.70;1.00;;;;;;26035930;22;20377;-42
